createdAt,value
2022-11-28T00:01:33.958Z,90.01
2022-11-28T00:04:01.137Z,89.63
2022-11-28T00:06:28.614Z,89.62
2022-11-28T00:08:58.713Z,89.97
2022-11-28T00:11:25.696Z,90.00
2022-11-28T00:13:53.854Z,90.05
2022-11-28T00:16:22.693Z,89.93
2022-11-28T00:18:51.418Z,89.98
2022-11-28T00:21:18.867Z,89.91
2022-11-28T00:23:47.004Z,90.04
2022-11-28T00:26:17.712Z,90.51
2022-11-28T00:28:44.875Z,90.24
2022-11-28T00:31:21.174Z,90.75
2022-11-28T00:33:48.362Z,90.71
2022-11-28T00:36:15.277Z,90.87
2022-11-28T00:38:42.124Z,90.86
2022-11-28T00:41:13.480Z,90.98
2022-11-28T00:43:41.922Z,90.60
2022-11-28T00:46:10.170Z,90.59
2022-11-28T00:48:37.016Z,90.38
2022-11-28T00:51:08.535Z,89.79
2022-11-28T00:53:36.694Z,90.37
2022-11-28T00:56:05.221Z,90.82
2022-11-28T00:58:33.299Z,91.08
2022-11-28T01:01:00.765Z,90.97
2022-11-28T01:03:27.596Z,90.95
2022-11-28T01:05:54.310Z,91.15
2022-11-28T01:08:21.013Z,90.94
2022-11-28T01:10:47.719Z,90.90
2022-11-28T01:13:14.485Z,91.26
2022-11-28T01:15:42.072Z,90.94
2022-11-28T01:18:09.411Z,91.13
2022-11-28T01:20:36.227Z,91.68
2022-11-28T01:23:03.020Z,91.66
2022-11-28T01:25:29.981Z,91.63
2022-11-28T01:27:56.885Z,91.78
2022-11-28T01:30:24.944Z,91.59
2022-11-28T01:32:51.724Z,90.88
2022-11-28T01:35:18.787Z,90.43
2022-11-28T01:37:45.680Z,90.28
2022-11-28T01:40:13.368Z,90.37
2022-11-28T01:42:40.177Z,90.26
2022-11-28T01:45:19.016Z,90.22
2022-11-28T01:47:47.523Z,89.99
2022-11-28T01:50:15.161Z,89.80
2022-11-28T01:52:45.034Z,89.88
2022-11-28T01:55:16.817Z,89.76
2022-11-28T01:57:43.908Z,89.62
2022-11-28T02:00:16.313Z,89.83
2022-11-28T02:03:00.221Z,89.43
2022-11-28T02:05:26.927Z,88.98
2022-11-28T02:07:53.758Z,89.28
2022-11-28T02:10:28.213Z,89.30
2022-11-28T02:13:13.615Z,89.17
2022-11-28T02:15:46.228Z,89.55
2022-11-28T02:18:19.118Z,89.70
2022-11-28T02:21:13.129Z,89.89
2022-11-28T02:24:01.393Z,89.65
2022-11-28T02:26:30.847Z,89.69
2022-11-28T02:29:15.838Z,89.38
2022-11-28T02:32:20.177Z,89.61
2022-11-28T02:35:05.512Z,89.03
2022-11-28T02:37:58.288Z,89.00
2022-11-28T02:40:36.386Z,88.94
2022-11-28T02:43:07.535Z,89.16
2022-11-28T02:46:00.825Z,88.80
2022-11-28T02:48:30.342Z,89.28
2022-11-28T02:51:16.155Z,89.16
2022-11-28T02:53:45.549Z,89.46
2022-11-28T02:56:12.889Z,89.92
2022-11-28T02:58:39.613Z,90.08
2022-11-28T03:01:17.374Z,89.87
2022-11-28T03:03:50.274Z,90.12
2022-11-28T03:06:35.648Z,90.55
2022-11-28T03:09:14.773Z,90.34
2022-11-28T03:12:15.493Z,90.02
2022-11-28T03:14:51.040Z,89.81
2022-11-28T03:17:20.700Z,89.79
2022-11-28T03:20:12.504Z,90.05
2022-11-28T03:23:06.097Z,89.91
2022-11-28T03:25:35.909Z,90.44
2022-11-28T03:28:13.837Z,90.51
2022-11-28T03:30:50.282Z,90.45
2022-11-28T03:33:20.592Z,90.62
2022-11-28T03:35:57.691Z,91.23
2022-11-28T03:38:38.031Z,90.76
2022-11-28T03:41:14.087Z,90.24
2022-11-28T03:43:46.762Z,89.84
2022-11-28T03:46:17.873Z,89.60
2022-11-28T03:48:50.146Z,89.54
2022-11-28T03:51:36.670Z,89.75
2022-11-28T03:54:11.185Z,89.86
2022-11-28T03:56:50.159Z,90.19
2022-11-28T03:59:23.621Z,90.27
2022-11-28T04:02:07.138Z,90.14
2022-11-28T04:04:54.361Z,90.03
2022-11-28T04:07:25.500Z,89.79
2022-11-28T04:09:54.916Z,89.75
2022-11-28T04:12:39.925Z,89.68
2022-11-28T04:15:26.229Z,89.71
2022-11-28T04:18:10.628Z,89.99
2022-11-28T04:20:53.200Z,90.03
2022-11-28T04:23:21.455Z,90.53
2022-11-28T04:25:58.479Z,90.52
2022-11-28T04:28:29.437Z,90.66
2022-11-28T04:30:58.589Z,90.56
2022-11-28T04:33:29.763Z,90.26
2022-11-28T04:35:57.918Z,89.48
2022-11-28T04:38:27.921Z,89.52
2022-11-28T04:41:04.310Z,90.13
2022-11-28T04:43:34.928Z,90.03
2022-11-28T04:46:17.424Z,90.27
2022-11-28T04:48:44.753Z,90.28
2022-11-28T04:51:18.327Z,90.24
2022-11-28T04:53:52.070Z,90.13
2022-11-28T04:56:33.834Z,90.68
2022-11-28T04:59:01.516Z,90.63
2022-11-28T05:01:31.787Z,90.45
2022-11-28T05:03:59.264Z,90.19
2022-11-28T05:06:36.498Z,90.17
2022-11-28T05:09:04.348Z,89.99
2022-11-28T05:11:31.782Z,89.86
2022-11-28T05:13:58.450Z,89.85
2022-11-28T05:16:25.452Z,89.55
2022-11-28T05:18:52.287Z,89.70
2022-11-28T05:21:19.257Z,89.38
2022-11-28T05:23:46.265Z,89.75
2022-11-28T05:26:19.559Z,89.73
2022-11-28T05:28:49.172Z,89.72
2022-11-28T05:31:18.162Z,89.74
2022-11-28T05:33:44.943Z,89.56
2022-11-28T05:36:13.866Z,89.71
2022-11-28T05:38:42.990Z,89.91
2022-11-28T05:41:25.366Z,89.88
2022-11-28T05:43:57.590Z,90.06
2022-11-28T05:46:27.260Z,90.02
2022-11-28T05:48:54.616Z,90.16
2022-11-28T05:51:21.891Z,90.46
2022-11-28T05:53:48.922Z,89.89
2022-11-28T05:56:20.395Z,90.03
2022-11-28T05:58:47.869Z,89.92
2022-11-28T06:01:22.704Z,90.20
2022-11-28T06:03:57.539Z,90.15
2022-11-28T06:06:26.854Z,89.98
2022-11-28T06:08:55.213Z,90.27
2022-11-28T06:11:24.588Z,90.84
2022-11-28T06:13:52.687Z,90.62
2022-11-28T06:16:27.768Z,90.29
2022-11-28T06:19:06.297Z,90.05
2022-11-28T06:21:38.784Z,90.36
2022-11-28T06:24:10.441Z,90.20
2022-11-28T06:26:38.820Z,90.66
2022-11-28T06:29:08.345Z,90.52
2022-11-28T06:31:36.280Z,90.71
2022-11-28T06:34:04.902Z,90.04
2022-11-28T06:36:35.830Z,89.38
2022-11-28T06:39:05.499Z,89.16
2022-11-28T06:41:35.636Z,88.95
2022-11-28T06:44:05.143Z,89.29
2022-11-28T06:46:34.263Z,89.19
2022-11-28T06:49:02.780Z,88.85
2022-11-28T06:51:30.110Z,89.14
2022-11-28T06:53:58.206Z,89.31
2022-11-28T06:56:26.649Z,89.34
2022-11-28T06:58:57.832Z,89.56
2022-11-28T07:01:28.235Z,89.37
2022-11-28T07:03:56.809Z,89.55
2022-11-28T07:06:26.127Z,89.25
2022-11-28T07:08:58.577Z,88.83
2022-11-28T07:11:31.322Z,88.43
2022-11-28T07:14:01.573Z,88.10
2022-11-28T07:16:33.124Z,87.53
2022-11-28T07:19:00.329Z,87.66
2022-11-28T07:21:29.658Z,87.20
2022-11-28T07:23:59.149Z,87.60
2022-11-28T07:26:26.899Z,87.50
2022-11-28T07:28:55.633Z,87.25
2022-11-28T07:31:31.431Z,86.59
2022-11-28T07:34:00.629Z,87.13
2022-11-28T07:36:28.797Z,87.75
2022-11-28T07:39:02.392Z,86.67
2022-11-28T07:41:29.992Z,86.55
2022-11-28T07:43:59.752Z,86.36
2022-11-28T07:46:29.035Z,85.91
2022-11-28T07:48:59.690Z,85.84
2022-11-28T07:51:31.038Z,85.84
2022-11-28T07:53:58.585Z,85.49
2022-11-28T07:56:39.339Z,85.86
2022-11-28T07:59:11.842Z,85.15
2022-11-28T08:01:39.013Z,85.06
2022-11-28T08:04:08.430Z,84.77
2022-11-28T08:06:41.505Z,84.09
2022-11-28T08:09:11.722Z,82.69
2022-11-28T08:11:40.807Z,82.34
2022-11-28T08:14:09.018Z,81.93
2022-11-28T08:16:39.359Z,82.32
2022-11-28T08:19:07.566Z,82.70
2022-11-28T08:21:35.146Z,81.38
2022-11-28T08:24:04.122Z,79.82
2022-11-28T08:26:32.483Z,80.66
2022-11-28T08:29:04.729Z,79.96
2022-11-28T08:31:41.059Z,78.80
2022-11-28T08:34:10.417Z,78.62
2022-11-28T08:36:39.744Z,78.44
2022-11-28T08:39:26.209Z,77.88
2022-11-28T08:41:57.879Z,77.74
2022-11-28T08:44:47.416Z,77.15
2022-11-28T08:47:15.404Z,76.04
2022-11-28T08:49:42.692Z,74.72
2022-11-28T08:52:10.549Z,74.69
2022-11-28T08:54:38.080Z,74.65
2022-11-28T08:57:05.690Z,73.45
2022-11-28T08:59:33.175Z,73.34
2022-11-28T09:02:02.250Z,72.52
2022-11-28T09:04:29.283Z,71.90
2022-11-28T09:06:58.741Z,72.13
2022-11-28T09:09:32.581Z,70.49
2022-11-28T09:12:00.870Z,71.25
2022-11-28T09:14:29.312Z,69.38
2022-11-28T09:17:00.211Z,68.85
2022-11-28T09:19:29.476Z,68.05
2022-11-28T09:22:01.105Z,67.13
2022-11-28T09:24:32.024Z,66.50
2022-11-28T09:27:03.782Z,65.73
2022-11-28T09:29:32.739Z,64.93
2022-11-28T09:32:03.064Z,64.43
2022-11-28T09:34:35.584Z,62.63
2022-11-28T09:37:06.576Z,59.59
2022-11-28T09:39:50.274Z,58.44
2022-11-28T09:42:43.931Z,57.57
2022-11-28T09:45:15.317Z,56.67
2022-11-28T09:48:01.452Z,53.65
2022-11-28T09:50:36.499Z,51.81
2022-11-28T09:53:12.714Z,49.89
2022-11-28T09:55:54.257Z,45.13
2022-11-28T09:58:27.255Z,42.58
2022-11-28T10:01:27.569Z,39.99
2022-11-28T10:04:20.144Z,38.83
2022-11-28T10:07:18.396Z,38.11
2022-11-28T10:10:21.616Z,37.32
2022-11-28T10:13:02.667Z,37.65
2022-11-28T10:15:58.358Z,39.05
2022-11-28T10:18:38.894Z,40.45
2022-11-28T10:21:38.610Z,40.85
2022-11-28T10:25:02.267Z,41.78
2022-11-28T10:27:45.017Z,42.95
2022-11-28T10:31:07.225Z,44.38
2022-11-28T10:34:26.451Z,45.67
2022-11-28T10:37:06.534Z,46.45
2022-11-28T10:39:41.013Z,48.35
2022-11-28T10:42:24.417Z,49.85
2022-11-28T10:45:20.123Z,51.19
2022-11-28T10:47:56.333Z,52.10
2022-11-28T10:50:45.742Z,53.02
2022-11-28T10:53:27.259Z,54.95
2022-11-28T10:56:28.394Z,56.31
2022-11-28T10:59:23.832Z,57.78
2022-11-28T11:01:52.728Z,58.23
2022-11-28T11:04:24.000Z,59.26
2022-11-28T11:07:29.311Z,59.64
2022-11-28T11:10:21.409Z,60.51
2022-11-28T11:12:52.131Z,61.17
2022-11-28T11:15:22.997Z,61.03
2022-11-28T11:17:51.607Z,61.57
2022-11-28T11:20:27.781Z,62.32
2022-11-28T11:23:38.037Z,62.93
2022-11-28T11:26:11.439Z,63.74
2022-11-28T11:28:44.926Z,63.58
2022-11-28T11:31:34.729Z,63.78
2022-11-28T11:34:15.377Z,64.40
2022-11-28T11:36:42.656Z,64.66
2022-11-28T11:39:11.074Z,66.36
2022-11-28T11:42:18.857Z,66.15
2022-11-28T11:44:46.151Z,66.24
2022-11-28T11:47:13.109Z,65.87
2022-11-28T11:49:43.524Z,65.68
2022-11-28T11:52:17.446Z,65.71
2022-11-28T11:54:56.928Z,66.31
2022-11-28T11:57:33.493Z,67.10
2022-11-28T12:00:10.407Z,66.70
2022-11-28T12:03:06.515Z,67.02
2022-11-28T12:08:51.049Z,67.63
2022-11-28T12:11:30.008Z,68.19
2022-11-28T12:14:21.353Z,68.22
2022-11-28T12:16:58.052Z,68.30
2022-11-28T12:19:32.177Z,68.56
2022-11-28T12:22:14.134Z,68.09
2022-11-28T12:25:02.437Z,68.67
2022-11-28T12:28:14.696Z,69.57
2022-11-28T12:30:50.969Z,69.57
2022-11-28T12:33:51.872Z,69.88
2022-11-28T12:36:31.356Z,70.37
2022-11-28T12:39:00.236Z,69.77
2022-11-28T12:42:06.855Z,69.90
2022-11-28T12:44:33.812Z,69.86
2022-11-28T12:47:18.788Z,70.02
2022-11-28T12:49:57.598Z,70.27
2022-11-28T12:52:51.429Z,70.24
2022-11-28T12:56:03.671Z,70.66
2022-11-28T12:58:54.098Z,70.39
2022-11-28T13:01:35.515Z,71.16
2022-11-28T13:04:47.492Z,71.29
2022-11-28T13:07:39.520Z,71.59
2022-11-28T13:10:14.894Z,71.98
2022-11-28T13:13:03.510Z,72.28
2022-11-28T13:15:36.556Z,72.32
2022-11-28T13:18:29.281Z,72.08
2022-11-28T13:21:24.524Z,72.76
2022-11-28T13:24:07.572Z,72.78
2022-11-28T13:26:58.405Z,72.42
2022-11-28T13:29:52.850Z,72.61
2022-11-28T13:32:29.950Z,72.71
2022-11-28T13:34:58.234Z,72.93
2022-11-28T13:40:35.128Z,73.99
2022-11-28T13:43:07.937Z,73.82
2022-11-28T13:45:40.784Z,74.02
2022-11-28T13:51:35.136Z,74.45
2022-11-28T13:54:25.156Z,74.24
2022-11-28T13:57:10.111Z,74.30
2022-11-28T13:59:37.873Z,73.84
2022-11-28T14:02:21.625Z,73.98
2022-11-28T14:04:49.121Z,73.90
2022-11-28T14:07:31.463Z,73.96
2022-11-28T14:10:29.748Z,73.99
2022-11-28T14:13:22.639Z,74.19
2022-11-28T14:16:01.092Z,74.09
2022-11-28T14:19:02.042Z,74.34
2022-11-28T14:21:40.917Z,74.39
2022-11-28T14:24:10.675Z,74.48
2022-11-28T14:26:40.075Z,74.58
2022-11-28T14:29:21.114Z,74.68
2022-11-28T14:32:21.934Z,74.75
2022-11-28T14:34:48.073Z,75.54
2022-11-28T14:37:21.130Z,75.47
2022-11-28T14:39:52.293Z,75.87
2022-11-28T14:45:40.162Z,76.62
2022-11-28T14:48:17.708Z,77.24
2022-11-28T14:50:54.591Z,77.16
2022-11-28T14:53:41.758Z,77.13
2022-11-28T14:56:29.463Z,76.98
2022-11-28T14:59:01.279Z,77.02
2022-11-28T15:01:46.525Z,76.74
2022-11-28T15:04:34.845Z,76.78
2022-11-28T15:07:03.664Z,77.06
2022-11-28T15:10:07.247Z,77.07
2022-11-28T15:12:59.531Z,77.36
2022-11-28T15:15:28.625Z,77.38
2022-11-28T15:17:59.433Z,77.55
2022-11-28T15:20:32.758Z,77.83
2022-11-28T15:23:00.369Z,78.23
2022-11-28T15:25:36.734Z,78.21
2022-11-28T15:28:18.560Z,78.68
2022-11-28T15:30:49.593Z,78.95
2022-11-28T15:33:17.118Z,79.08
2022-11-28T15:35:57.758Z,78.79
2022-11-28T15:38:27.481Z,78.95
2022-11-28T15:40:56.554Z,79.10
2022-11-28T15:43:25.355Z,79.46
2022-11-28T15:46:02.061Z,79.10
2022-11-28T15:48:51.788Z,79.23
2022-11-28T15:51:34.993Z,78.92
2022-11-28T15:54:32.164Z,79.18
2022-11-28T15:57:00.748Z,79.52
2022-11-28T15:59:29.341Z,79.42
2022-11-28T16:02:10.933Z,79.47
2022-11-28T16:04:38.401Z,79.36
2022-11-28T16:07:06.333Z,79.19
2022-11-28T16:09:35.096Z,79.03
2022-11-28T16:12:04.690Z,79.09
2022-11-28T16:14:35.148Z,79.57
2022-11-28T16:17:09.817Z,80.07
2022-11-28T16:19:37.402Z,80.17
2022-11-28T16:22:08.929Z,79.94
2022-11-28T16:24:48.454Z,80.24
2022-11-28T16:27:34.921Z,80.48
2022-11-28T16:30:23.248Z,80.68
2022-11-28T16:32:52.180Z,80.86
2022-11-28T16:35:28.407Z,81.10
2022-11-28T16:38:18.537Z,81.13
2022-11-28T16:40:45.246Z,81.14
2022-11-28T16:43:32.817Z,81.11
2022-11-28T16:46:05.983Z,81.49
2022-11-28T16:48:45.856Z,81.73
2022-11-28T16:51:21.570Z,81.45
2022-11-28T16:53:55.030Z,82.04
2022-11-28T16:56:29.582Z,82.10
2022-11-28T16:59:14.325Z,82.18
2022-11-28T17:01:45.271Z,82.50
2022-11-28T17:04:26.858Z,82.22
2022-11-28T17:06:57.588Z,82.47
2022-11-28T17:09:24.494Z,82.15
2022-11-28T17:11:54.471Z,82.33
2022-11-28T17:14:22.250Z,82.53
2022-11-28T17:16:49.419Z,82.49
2022-11-28T17:19:17.061Z,82.69
2022-11-28T17:21:57.173Z,82.92
2022-11-28T17:24:35.378Z,83.27
2022-11-28T17:27:03.543Z,83.11
2022-11-28T17:29:30.320Z,83.32
2022-11-28T17:31:58.320Z,83.46
2022-11-28T17:34:27.284Z,83.42
2022-11-28T17:36:54.453Z,83.40
2022-11-28T17:39:21.391Z,83.17
2022-11-28T17:41:49.120Z,82.82
2022-11-28T17:44:22.233Z,82.71
2022-11-28T17:46:50.636Z,82.43
2022-11-28T17:49:18.694Z,82.11
2022-11-28T17:51:45.826Z,82.24
2022-11-28T17:54:16.105Z,82.52
2022-11-28T17:56:45.761Z,82.81
2022-11-28T17:59:14.576Z,82.73
2022-11-28T18:01:46.954Z,83.29
2022-11-28T18:04:13.761Z,83.31
2022-11-28T18:06:45.699Z,84.25
2022-11-28T18:09:14.443Z,83.97
2022-11-28T18:11:42.440Z,84.03
2022-11-28T18:14:09.895Z,84.07
2022-11-28T18:16:39.090Z,85.00
2022-11-28T18:19:07.350Z,85.21
2022-11-28T18:21:34.211Z,85.18
2022-11-28T18:24:02.103Z,85.52
2022-11-28T18:26:29.781Z,85.61
2022-11-28T18:28:58.371Z,85.60
2022-11-28T18:31:28.317Z,85.53
2022-11-28T18:34:02.073Z,85.14
2022-11-28T18:36:36.273Z,85.10
2022-11-28T18:39:10.695Z,85.38
2022-11-28T18:41:39.687Z,85.07
2022-11-28T18:44:10.118Z,85.28
2022-11-28T18:46:38.576Z,85.25
2022-11-28T18:49:05.497Z,85.35
2022-11-28T18:51:34.100Z,85.69
2022-11-28T18:54:05.116Z,85.83
2022-11-28T18:56:33.082Z,86.19
2022-11-28T18:58:59.842Z,86.49
2022-11-28T19:01:33.007Z,86.15
2022-11-28T19:04:06.751Z,85.54
2022-11-28T19:06:35.584Z,85.62
2022-11-28T19:09:07.447Z,85.53
2022-11-28T19:11:34.995Z,85.45
2022-11-28T19:14:02.900Z,86.20
2022-11-28T19:16:32.859Z,86.53
2022-11-28T19:19:01.849Z,86.91
2022-11-28T19:21:32.190Z,87.31
2022-11-28T19:24:03.742Z,87.78
2022-11-28T19:26:36.473Z,87.97
2022-11-28T19:29:05.310Z,87.94
2022-11-28T19:31:34.599Z,87.82
2022-11-28T19:34:06.394Z,87.79
2022-11-28T19:37:05.260Z,87.57
2022-11-28T19:39:32.224Z,87.48
2022-11-28T19:41:59.867Z,87.00
2022-11-28T19:44:28.490Z,86.40
2022-11-28T19:46:55.831Z,86.47
2022-11-28T19:49:24.531Z,86.36
2022-11-28T19:51:53.461Z,86.71
2022-11-28T19:54:20.987Z,87.65
2022-11-28T19:56:49.076Z,87.40
2022-11-28T19:59:16.433Z,87.90
2022-11-28T20:01:43.820Z,88.01
2022-11-28T20:04:12.133Z,88.55
2022-11-28T20:06:38.916Z,88.53
2022-11-28T20:09:08.574Z,88.71
2022-11-28T20:11:38.130Z,89.02
2022-11-28T20:14:09.571Z,89.07
2022-11-28T20:16:37.284Z,89.54
2022-11-28T20:19:05.679Z,89.97
2022-11-28T20:21:34.152Z,89.90
2022-11-28T20:24:04.705Z,90.45
2022-11-28T20:26:37.329Z,90.33
2022-11-28T20:29:04.764Z,90.48
2022-11-28T20:31:36.655Z,90.29
2022-11-28T20:34:05.500Z,89.79
2022-11-28T20:36:33.781Z,89.63
2022-11-28T20:39:04.848Z,89.76
2022-11-28T20:41:32.422Z,89.91
2022-11-28T20:44:00.313Z,89.98
2022-11-28T20:46:30.401Z,90.57
2022-11-28T20:48:59.643Z,90.80
2022-11-28T20:51:28.511Z,90.76
2022-11-28T20:53:57.347Z,91.02
2022-11-28T20:56:28.661Z,90.42
2022-11-28T20:58:58.128Z,90.25
2022-11-28T21:01:27.409Z,90.12
2022-11-28T21:03:54.363Z,89.74
2022-11-28T21:06:21.338Z,89.62
2022-11-28T21:08:48.356Z,89.50
2022-11-28T21:11:43.468Z,89.45
2022-11-28T21:14:05.711Z,89.31
2022-11-28T21:16:33.446Z,89.72
2022-11-28T21:19:08.873Z,89.70
2022-11-28T21:21:39.028Z,89.60
2022-11-28T21:24:09.877Z,89.13
2022-11-28T21:26:42.376Z,88.51
2022-11-28T21:29:13.115Z,89.07
2022-11-28T21:31:42.537Z,89.59
2022-11-28T21:34:13.654Z,90.33
2022-11-28T21:36:40.406Z,90.41
2022-11-28T21:39:07.182Z,90.33
2022-11-28T21:41:34.302Z,89.85
2022-11-28T21:44:01.507Z,89.43
2022-11-28T21:46:28.511Z,89.74
2022-11-28T21:48:57.151Z,89.56
2022-11-28T21:51:28.260Z,89.05
2022-11-28T21:53:58.591Z,88.62
2022-11-28T21:56:26.208Z,87.89
2022-11-28T21:58:53.977Z,87.40
2022-11-28T22:01:21.739Z,87.04
2022-11-28T22:03:48.986Z,87.05
2022-11-28T22:06:20.423Z,87.15
2022-11-28T22:08:49.286Z,87.13
2022-11-28T22:11:16.837Z,86.26
2022-11-28T22:13:46.887Z,86.31
2022-11-28T22:16:13.893Z,86.16
2022-11-28T22:18:40.762Z,86.75
2022-11-28T22:21:22.575Z,87.06
2022-11-28T22:23:57.892Z,87.59
2022-11-28T22:26:24.578Z,88.65
2022-11-28T22:28:53.736Z,89.51
2022-11-28T22:31:22.440Z,89.39
2022-11-28T22:33:50.045Z,89.30
2022-11-28T22:36:19.003Z,89.14
2022-11-28T22:38:47.475Z,88.65
2022-11-28T22:41:26.416Z,88.21
2022-11-28T22:43:58.740Z,87.41
2022-11-28T22:46:25.439Z,87.36
2022-11-28T22:48:52.251Z,88.13
2022-11-28T22:51:21.646Z,88.40
2022-11-28T22:53:55.743Z,88.61
2022-11-28T22:56:25.081Z,88.50
2022-11-28T22:58:52.244Z,88.49
2022-11-28T23:01:25.972Z,88.49
2022-11-28T23:03:53.989Z,88.40
2022-11-28T23:06:24.344Z,88.36
2022-11-28T23:08:55.490Z,88.27
2022-11-28T23:11:25.922Z,88.21
2022-11-28T23:13:57.019Z,88.33
2022-11-28T23:16:30.818Z,88.48
2022-11-28T23:19:01.299Z,88.40
2022-11-28T23:21:31.999Z,88.53
2022-11-28T23:23:59.459Z,88.97
2022-11-28T23:26:29.076Z,89.52
2022-11-28T23:28:58.752Z,89.47
2022-11-28T23:31:30.965Z,89.31
2022-11-28T23:33:59.441Z,88.85
2022-11-28T23:36:41.446Z,88.69
2022-11-28T23:39:15.590Z,88.41
2022-11-28T23:41:43.659Z,86.58
2022-11-28T23:44:12.348Z,86.42
2022-11-28T23:46:39.467Z,86.62
2022-11-28T23:49:07.125Z,86.78
2022-11-28T23:51:34.333Z,87.43
2022-11-28T23:54:01.124Z,87.87
2022-11-28T23:56:30.329Z,87.68
2022-11-28T23:58:59.421Z,87.10
